Time;durP1;ratioP1;P1;durP2;ratioP2;P2;SDS_P1;SDS_P2;PMS_P1;PMS_P2;Temp;Humidity;BMP_temperature;BMP_pressure;BME280_temperature;BME280_humidity;BME280_pressure;Samples;Min_cycle;Max_cycle;Signal;HPM_P1;HPM_P2
2023/06/05 00:00:02;;;;;;;9.68;7.50;;;10.50;99.90;;;;;;5014828;28;20500;-70
2023/06/05 00:02:28;;;;;;;8.60;7.32;;;10.50;99.90;;;;;;5026725;28;20474;-70
2023/06/05 00:04:57;;;;;;;10.85;7.55;;;10.40;99.90;;;;;;5060427;28;20119;-70
2023/06/05 00:07:23;;;;;;;9.80;7.50;;;10.40;99.90;;;;;;5032021;28;20051;-70
2023/06/05 00:09:49;;;;;;;10.77;8.23;;;10.40;99.90;;;;;;5048105;28;20040;-70
2023/06/05 00:12:15;;;;;;;9.00;7.35;;;10.40;99.90;;;;;;5016458;28;20087;-70
2023/06/05 00:14:43;;;;;;;9.68;7.10;;;10.30;99.90;;;;;;5041823;28;20044;-71
2023/06/05 00:17:09;;;;;;;9.13;7.35;;;10.30;99.90;;;;;;5079079;28;20492;-70
2023/06/05 00:19:35;;;;;;;9.57;7.68;;;10.30;99.90;;;;;;5046507;28;20043;-70
2023/06/05 00:22:00;;;;;;;9.98;8.40;;;10.20;99.90;;;;;;5063144;28;20040;-70
2023/06/05 00:24:26;;;;;;;10.15;7.72;;;10.20;99.90;;;;;;5047845;28;20048;-70
2023/06/05 00:26:53;;;;;;;8.65;7.00;;;10.20;99.90;;;;;;5049406;28;20071;-70
2023/06/05 00:29:19;;;;;;;10.05;7.18;;;10.10;99.90;;;;;;5045062;28;20570;-72
2023/06/05 00:31:46;;;;;;;9.88;7.20;;;10.10;99.90;;;;;;5049060;28;20048;-72
2023/06/05 00:34:13;;;;;;;8.80;7.25;;;10.00;99.90;;;;;;5027627;28;20074;-70
2023/06/05 00:36:40;;;;;;;8.82;7.80;;;10.00;99.90;;;;;;5048048;28;20040;-70
2023/06/05 00:39:06;;;;;;;9.80;8.60;;;10.00;99.90;;;;;;5044205;28;20058;-70
2023/06/05 00:41:32;;;;;;;9.73;7.93;;;9.90;99.90;;;;;;5029885;28;20436;-70
2023/06/05 00:43:58;;;;;;;11.80;8.95;;;10.00;99.90;;;;;;5047720;28;20032;-70
2023/06/05 00:46:24;;;;;;;9.95;8.35;;;9.90;99.90;;;;;;5047675;28;20131;-70
2023/06/05 00:48:50;;;;;;;10.82;8.30;;;9.90;99.90;;;;;;5053684;28;20043;-70
2023/06/05 00:51:20;;;;;;;11.13;8.68;;;9.90;99.90;;;;;;5051461;28;20063;-70
2023/06/05 00:53:47;;;;;;;8.23;7.43;;;10.00;99.90;;;;;;5060424;28;20039;-72
2023/06/05 00:56:13;;;;;;;9.57;7.68;;;9.90;99.90;;;;;;5079857;28;20719;-73
2023/06/05 00:58:39;;;;;;;9.93;8.63;;;9.90;99.90;;;;;;5018015;28;20129;-72
2023/06/05 01:01:06;;;;;;;8.65;7.75;;;9.90;99.90;;;;;;5032651;28;20085;-73
2023/06/05 01:03:35;;;;;;;9.27;8.20;;;9.80;99.90;;;;;;5044944;28;20475;-73
2023/06/05 01:06:03;;;;;;;10.57;8.73;;;9.70;99.90;;;;;;5032035;28;20704;-73
2023/06/05 01:08:38;;;;;;;9.73;8.73;;;9.70;99.90;;;;;;5039986;28;20520;-73
2023/06/05 01:11:09;;;;;;;9.05;7.72;;;9.60;99.90;;;;;;5061599;28;20652;-73
2023/06/05 01:13:40;;;;;;;8.93;8.02;;;9.50;99.90;;;;;;5048846;28;20041;-73
2023/06/05 01:16:09;;;;;;;12.20;8.05;;;9.50;99.90;;;;;;5049102;28;20048;-73
2023/06/05 01:18:40;;;;;;;9.13;7.53;;;9.50;99.90;;;;;;5048001;28;20076;-73
2023/06/05 01:21:14;;;;;;;8.95;8.05;;;9.50;99.90;;;;;;5023067;28;20044;-73
2023/06/05 01:23:44;;;;;;;8.43;7.47;;;9.40;99.90;;;;;;5031023;28;20060;-74
2023/06/05 01:26:16;;;;;;;9.32;8.40;;;9.40;99.90;;;;;;5021880;28;20497;-74
2023/06/05 01:28:46;;;;;;;8.40;7.38;;;9.40;99.90;;;;;;5038524;28;20037;-73
2023/06/05 01:31:16;;;;;;;9.52;7.75;;;9.40;99.90;;;;;;5033537;28;20048;-73
2023/06/05 01:33:49;;;;;;;10.82;7.82;;;9.40;99.90;;;;;;5029674;28;20047;-73
2023/06/05 01:36:15;;;;;;;12.13;9.80;;;9.30;99.90;;;;;;5052861;28;20214;-73
2023/06/05 01:38:43;;;;;;;8.82;8.02;;;9.30;99.90;;;;;;5012491;28;20037;-74
2023/06/05 01:41:10;;;;;;;10.43;8.00;;;9.30;99.90;;;;;;5033393;28;20037;-73
2023/06/05 01:43:37;;;;;;;8.82;7.60;;;9.30;99.90;;;;;;5047322;28;20045;-70
2023/06/05 01:46:06;;;;;;;10.05;8.48;;;9.20;99.90;;;;;;5049073;28;20054;-70
2023/06/05 01:48:33;;;;;;;8.93;8.00;;;9.10;99.90;;;;;;5050346;28;20396;-70
2023/06/05 01:51:00;;;;;;;9.68;7.90;;;9.10;99.90;;;;;;5032246;28;20073;-70
2023/06/05 01:53:27;;;;;;;9.70;8.32;;;9.10;99.90;;;;;;5041559;28;20055;-71
2023/06/05 01:55:57;;;;;;;8.65;7.78;;;9.00;99.90;;;;;;5026107;28;20033;-71
2023/06/05 01:58:26;;;;;;;10.25;9.13;;;9.00;99.90;;;;;;5033431;28;20040;-71
2023/06/05 02:00:53;;;;;;;11.48;9.88;;;9.00;99.90;;;;;;5025072;28;20049;-70
2023/06/05 02:03:20;;;;;;;13.27;11.00;;;8.90;99.90;;;;;;5025950;28;20146;-69
2023/06/05 02:05:46;;;;;;;12.38;10.45;;;8.80;99.90;;;;;;5043259;28;20055;-70
2023/06/05 02:08:13;;;;;;;12.57;10.38;;;8.70;99.90;;;;;;5030910;28;20932;-70
2023/06/05 02:10:43;;;;;;;11.77;10.55;;;8.60;99.90;;;;;;5070790;28;20045;-69
2023/06/05 02:13:09;;;;;;;;;;;8.60;99.90;;;;;;5040507;28;20182;-70
2023/06/05 02:15:36;;;;;;;10.80;9.52;;;8.60;99.90;;;;;;5046759;28;20670;-70
2023/06/05 02:18:04;;;;;;;11.30;9.27;;;8.50;99.90;;;;;;5046737;28;20047;-70
2023/06/05 02:20:32;;;;;;;10.48;9.10;;;8.50;99.90;;;;;;5052282;28;20036;-70
2023/06/05 02:23:00;;;;;;;10.68;9.55;;;8.50;99.90;;;;;;5052809;28;20070;-70
2023/06/05 02:25:26;;;;;;;12.23;10.57;;;8.50;99.90;;;;;;5061446;28;20040;-70
2023/06/05 02:27:53;;;;;;;10.07;9.07;;;8.50;99.90;;;;;;5060816;28;20047;-70
2023/06/05 02:30:20;;;;;;;12.02;9.45;;;8.50;99.90;;;;;;5050861;28;20048;-70
2023/06/05 02:32:46;;;;;;;14.90;11.60;;;8.50;99.90;;;;;;5028897;28;20588;-69
2023/06/05 02:35:15;;;;;;;11.45;10.35;;;8.50;99.90;;;;;;5062531;28;20558;-70
2023/06/05 02:37:44;;;;;;;13.38;11.98;;;8.60;99.90;;;;;;5043803;28;20068;-70
2023/06/05 02:40:13;;;;;;;16.03;11.63;;;8.60;99.90;;;;;;5036129;28;20157;-70
2023/06/05 02:42:40;;;;;;;11.85;10.65;;;8.60;99.90;;;;;;5062932;28;20036;-70
2023/06/05 02:45:07;;;;;;;12.68;11.02;;;8.60;99.90;;;;;;5043606;28;20064;-70
2023/06/05 02:47:33;;;;;;;11.20;10.00;;;8.60;99.90;;;;;;5058773;28;20100;-70
2023/06/05 02:50:00;;;;;;;15.38;12.25;;;8.70;99.90;;;;;;5033069;28;20040;-70
2023/06/05 02:52:27;;;;;;;11.60;10.50;;;8.70;99.90;;;;;;5046561;28;20119;-70
2023/06/05 02:54:52;;;;;;;10.80;9.77;;;8.70;99.90;;;;;;5044761;28;20047;-70
2023/06/05 02:57:18;;;;;;;12.93;11.48;;;8.80;99.90;;;;;;5052549;28;20408;-70
2023/06/05 02:59:44;;;;;;;11.70;9.98;;;8.80;99.90;;;;;;5049942;28;20063;-70
2023/06/05 03:02:11;;;;;;;14.77;10.93;;;8.80;99.90;;;;;;5038956;28;20070;-70
2023/06/05 03:04:40;;;;;;;13.30;11.70;;;8.80;99.90;;;;;;5056149;28;20066;-71
2023/06/05 03:07:06;;;;;;;13.07;11.77;;;8.80;99.90;;;;;;5032740;28;20049;-70
2023/06/05 03:09:32;;;;;;;12.15;10.93;;;8.90;99.90;;;;;;5055909;28;20487;-70
2023/06/05 03:11:58;;;;;;;11.48;10.27;;;8.90;99.90;;;;;;5044591;28;20037;-70
2023/06/05 03:14:24;;;;;;;13.20;11.25;;;8.90;99.90;;;;;;5050151;28;20048;-71
2023/06/05 03:16:50;;;;;;;11.43;10.27;;;8.90;99.90;;;;;;5050953;28;20036;-71
2023/06/05 03:19:16;;;;;;;14.55;12.50;;;8.90;99.90;;;;;;5049080;28;20750;-71
2023/06/05 03:21:42;;;;;;;18.85;14.60;;;8.90;99.90;;;;;;5059700;28;20051;-71
2023/06/05 03:24:12;;;;;;;15.73;13.48;;;9.00;99.90;;;;;;5047516;28;20109;-71
2023/06/05 03:26:40;;;;;;;17.45;13.48;;;9.00;99.90;;;;;;5056207;28;20040;-71
2023/06/05 03:29:07;;;;;;;22.55;15.52;;;9.00;99.90;;;;;;5051854;28;20044;-71
2023/06/05 03:31:33;;;;;;;19.85;13.63;;;9.00;99.90;;;;;;5064863;28;20146;-70
2023/06/05 03:33:59;;;;;;;16.80;13.32;;;8.90;99.90;;;;;;5039697;28;20040;-73
2023/06/05 03:36:27;;;;;;;19.05;14.48;;;8.90;99.90;;;;;;5047227;28;20052;-70
2023/06/05 03:38:53;;;;;;;17.35;14.57;;;8.80;99.90;;;;;;5047883;28;20136;-72
2023/06/05 03:41:20;;;;;;;17.08;13.65;;;8.80;99.90;;;;;;5063597;28;20633;-73
2023/06/05 03:43:46;;;;;;;13.13;10.93;;;8.80;99.90;;;;;;5045663;28;20040;-76
2023/06/05 03:46:18;;;;;;;16.90;12.35;;;8.70;99.90;;;;;;5042645;28;20046;-70
2023/06/05 03:48:46;;;;;;;17.75;12.68;;;8.70;99.90;;;;;;5059171;28;20441;-71
2023/06/05 03:51:13;;;;;;;13.50;12.10;;;8.70;99.90;;;;;;5030776;28;20048;-71
2023/06/05 03:53:39;;;;;;;17.67;14.85;;;8.70;99.90;;;;;;5028818;28;20162;-71
2023/06/05 03:56:08;;;;;;;24.00;16.05;;;8.70;99.90;;;;;;5030938;28;20040;-71
2023/06/05 03:58:35;;;;;;;15.05;13.52;;;8.70;99.90;;;;;;5032335;28;20713;-70
2023/06/05 04:01:04;;;;;;;15.23;13.63;;;8.60;99.90;;;;;;5030121;28;20039;-71
2023/06/05 04:03:30;;;;;;;21.77;15.88;;;8.70;99.90;;;;;;5043517;28;20043;-71
2023/06/05 04:05:56;;;;;;;17.63;15.65;;;8.80;99.90;;;;;;5046755;28;20069;-70
2023/06/05 04:08:21;;;;;;;24.23;16.70;;;8.80;99.90;;;;;;5047686;28;20044;-71
2023/06/05 04:10:47;;;;;;;16.02;13.52;;;8.80;99.90;;;;;;5067330;28;20051;-74
2023/06/05 04:13:13;;;;;;;16.67;13.45;;;8.90;99.90;;;;;;5034042;28;20418;-73
2023/06/05 04:15:39;;;;;;;14.82;13.05;;;8.90;99.90;;;;;;5030618;28;20059;-74
2023/06/05 04:18:05;;;;;;;15.05;12.40;;;9.00;99.90;;;;;;5048255;28;20070;-74
2023/06/05 04:20:31;;;;;;;14.27;12.77;;;9.10;99.90;;;;;;5038837;28;20086;-71
2023/06/05 04:22:56;;;;;;;17.33;13.80;;;9.10;99.90;;;;;;5054256;28;20055;-70
2023/06/05 04:25:22;;;;;;;18.10;13.65;;;9.30;99.90;;;;;;5013487;28;20542;-71
2023/06/05 04:27:51;;;;;;;16.92;14.35;;;9.30;99.90;;;;;;5032226;28;20058;-71
2023/06/05 04:30:17;;;;;;;16.92;13.52;;;9.40;99.90;;;;;;5059239;28;20520;-71
2023/06/05 04:32:52;;;;;;;14.50;12.77;;;9.40;99.90;;;;;;5053583;28;20048;-71
2023/06/05 04:35:18;;;;;;;15.25;12.68;;;9.40;99.90;;;;;;5059365;28;20061;-70
2023/06/05 04:37:45;;;;;;;13.60;11.90;;;9.50;99.90;;;;;;5060526;28;20048;-70
2023/06/05 04:40:15;;;;;;;15.32;11.98;;;9.60;99.90;;;;;;5032624;28;20574;-70
2023/06/05 04:42:40;;;;;;;13.88;12.35;;;9.70;99.90;;;;;;5082846;28;20079;-70
2023/06/05 04:45:07;;;;;;;12.65;11.27;;;9.70;99.90;;;;;;5065222;28;20072;-70
2023/06/05 04:47:33;;;;;;;13.88;12.38;;;9.80;99.90;;;;;;5046940;28;20259;-70
2023/06/05 04:50:04;;;;;;;13.35;11.60;;;9.90;99.90;;;;;;5061765;28;20048;-70
2023/06/05 04:52:35;;;;;;;14.68;11.50;;;10.00;99.90;;;;;;5033202;28;20040;-70
2023/06/05 04:55:01;;;;;;;13.27;11.88;;;10.00;99.90;;;;;;5034799;28;20052;-71
2023/06/05 04:57:28;;;;;;;13.10;10.95;;;10.00;99.90;;;;;;5060493;28;20119;-70
2023/06/05 04:59:54;;;;;;;13.07;11.68;;;10.10;99.90;;;;;;5060456;28;20033;-70
2023/06/05 05:02:20;;;;;;;12.57;10.32;;;10.20;99.90;;;;;;5052114;28;20051;-71
2023/06/05 05:04:47;;;;;;;13.32;10.52;;;10.20;99.90;;;;;;5065505;28;20037;-71
2023/06/05 05:07:16;;;;;;;13.50;10.13;;;10.30;99.90;;;;;;5064963;28;20051;-70
2023/06/05 05:09:46;;;;;;;11.73;10.32;;;10.40;99.90;;;;;;5060488;28;20044;-72
2023/06/05 05:12:12;;;;;;;11.67;9.93;;;10.40;99.90;;;;;;5052943;28;20032;-71
2023/06/05 05:14:40;;;;;;;12.63;9.68;;;10.50;99.90;;;;;;5061627;28;20052;-71
2023/06/05 05:17:05;;;;;;;10.98;9.88;;;10.50;99.90;;;;;;5049477;28;20384;-71
2023/06/05 05:19:31;;;;;;;10.75;9.55;;;10.60;99.90;;;;;;5029211;28;20059;-71
2023/06/05 05:21:57;;;;;;;10.75;9.23;;;10.60;99.90;;;;;;5067479;28;20043;-71
2023/06/05 05:24:24;;;;;;;10.73;9.57;;;10.70;99.90;;;;;;5067362;28;20541;-71
2023/06/05 05:26:51;;;;;;;11.52;10.38;;;10.80;99.90;;;;;;5066317;28;20519;-71
2023/06/05 05:29:17;;;;;;;10.40;9.07;;;10.80;99.90;;;;;;5049520;28;20047;-71
2023/06/05 05:31:46;;;;;;;11.43;9.40;;;10.90;99.90;;;;;;5048316;28;20044;-71
2023/06/05 05:34:12;;;;;;;10.73;9.65;;;11.00;99.90;;;;;;5047863;28;20535;-71
2023/06/05 05:36:37;;;;;;;11.57;9.95;;;11.00;99.90;;;;;;5048782;28;20127;-71
2023/06/05 05:39:04;;;;;;;11.48;10.07;;;11.10;99.90;;;;;;5049926;28;20506;-71
2023/06/05 05:41:30;;;;;;;12.30;10.50;;;11.20;99.90;;;;;;5064942;28;20043;-71
2023/06/05 05:43:56;;;;;;;11.63;10.23;;;11.20;99.90;;;;;;5035113;28;20059;-71
2023/06/05 05:46:21;;;;;;;11.52;10.43;;;11.30;99.90;;;;;;5044948;28;20051;-70
2023/06/05 05:48:47;;;;;;;11.55;10.45;;;11.40;99.90;;;;;;5059425;28;20079;-71
2023/06/05 05:51:13;;;;;;;12.68;11.38;;;11.40;99.90;;;;;;5066712;28;20052;-71
2023/06/05 05:53:39;;;;;;;12.23;10.77;;;11.50;99.90;;;;;;5066455;28;20044;-71
2023/06/05 05:56:08;;;;;;;11.13;10.02;;;11.60;99.90;;;;;;5044977;28;20044;-71
2023/06/05 05:58:34;;;;;;;11.35;10.25;;;11.60;99.90;;;;;;5029768;28;20579;-71
2023/06/05 06:01:00;;;;;;;10.48;9.43;;;11.60;99.90;;;;;;5044267;28;20043;-71
2023/06/05 06:03:26;;;;;;;10.75;9.30;;;11.70;99.90;;;;;;5049113;28;20052;-71
2023/06/05 06:05:53;;;;;;;10.85;9.75;;;11.80;99.90;;;;;;5049678;28;20544;-71
2023/06/05 06:08:20;;;;;;;10.70;9.70;;;11.80;99.90;;;;;;5050437;28;20040;-71
2023/06/05 06:10:45;;;;;;;9.73;8.73;;;11.90;99.90;;;;;;5050826;28;20188;-71
2023/06/05 06:13:12;;;;;;;11.07;9.40;;;11.90;99.90;;;;;;5046688;28;20119;-71
2023/06/05 06:15:38;;;;;;;11.05;9.25;;;11.90;99.90;;;;;;5066672;28;20499;-75
2023/06/05 06:18:05;;;;;;;10.60;9.50;;;12.00;99.90;;;;;;5054230;28;20393;-74
2023/06/05 06:20:33;;;;;;;10.35;8.73;;;12.10;99.90;;;;;;5035072;28;20161;-74
2023/06/05 06:22:59;;;;;;;9.65;8.57;;;12.20;99.90;;;;;;5065981;28;20071;-74
2023/06/05 06:25:28;;;;;;;9.35;8.45;;;12.30;99.90;;;;;;5063448;28;20134;-74
2023/06/05 06:27:55;;;;;;;8.98;7.95;;;12.40;99.90;;;;;;5044640;28;20523;-75
2023/06/05 06:30:21;;;;;;;8.48;7.65;;;12.40;99.90;;;;;;5069319;28;20101;-75
2023/06/05 06:32:47;;;;;;;8.77;7.40;;;12.50;99.90;;;;;;5045846;28;20038;-75
2023/06/05 06:35:13;;;;;;;9.25;7.88;;;12.50;99.90;;;;;;5067217;28;20052;-71
2023/06/05 06:37:43;;;;;;;7.90;7.03;;;12.60;99.90;;;;;;5049031;28;20051;-72
2023/06/05 06:40:09;;;;;;;8.07;6.13;;;12.60;99.90;;;;;;5065108;28;20119;-72
2023/06/05 06:42:35;;;;;;;7.20;5.90;;;12.70;99.90;;;;;;5066439;28;20155;-72
2023/06/05 06:45:01;;;;;;;6.88;5.50;;;12.90;99.90;;;;;;5064033;28;20043;-71
2023/06/05 06:47:27;;;;;;;6.88;5.88;;;13.00;99.90;;;;;;5045415;28;20507;-72
2023/06/05 06:49:53;;;;;;;7.72;6.05;;;13.10;99.90;;;;;;5065678;28;20032;-72
2023/06/05 06:52:20;;;;;;;6.85;5.53;;;13.10;99.90;;;;;;5079071;28;20051;-72
2023/06/05 06:54:49;;;;;;;6.18;5.35;;;13.20;99.90;;;;;;5042741;28;20039;-70
2023/06/05 06:57:15;;;;;;;8.00;5.70;;;13.20;99.90;;;;;;5050870;28;20134;-72
2023/06/05 06:59:41;;;;;;;6.25;5.38;;;13.20;99.90;;;;;;5029563;28;20142;-71
2023/06/05 07:02:11;;;;;;;7.90;5.00;;;13.20;99.90;;;;;;5045791;28;20123;-71
2023/06/05 07:04:38;;;;;;;6.68;5.10;;;13.20;99.90;;;;;;5042031;28;20306;-71
2023/06/05 07:07:04;;;;;;;6.82;4.85;;;13.30;99.90;;;;;;5056061;28;20044;-70
2023/06/05 07:09:30;;;;;;;6.30;5.07;;;13.40;99.90;;;;;;5042179;28;20102;-70
2023/06/05 07:11:56;;;;;;;6.18;5.38;;;13.40;99.90;;;;;;5013258;28;20546;-70
2023/06/05 07:14:22;;;;;;;6.63;5.22;;;13.60;99.90;;;;;;5028068;28;20049;-70
2023/06/05 07:16:49;;;;;;;6.43;5.18;;;13.70;99.90;;;;;;5045005;28;20037;-71
2023/06/05 07:19:15;;;;;;;7.03;5.07;;;13.80;99.90;;;;;;5022742;28;20044;-71
2023/06/05 07:21:44;;;;;;;6.90;5.20;;;13.90;99.90;;;;;;5033727;28;20044;-71
2023/06/05 07:24:10;;;;;;;5.88;5.18;;;14.00;99.90;;;;;;5047086;28;20040;-71
2023/06/05 07:26:36;;;;;;;6.15;4.78;;;14.10;99.90;;;;;;5025324;28;20098;-70
2023/06/05 07:29:02;;;;;;;6.75;4.50;;;14.10;99.90;;;;;;5041633;28;20052;-71
2023/06/05 07:31:29;;;;;;;5.05;4.20;;;14.30;99.90;;;;;;5027559;28;20078;-71
2023/06/05 07:33:55;;;;;;;5.22;4.45;;;14.50;99.90;;;;;;5026498;28;20040;-71
2023/06/05 07:36:22;;;;;;;6.35;4.25;;;14.60;99.90;;;;;;5040998;28;20082;-70
2023/06/05 07:38:48;;;;;;;7.43;4.70;;;14.80;99.90;;;;;;5009895;28;20040;-71
2023/06/05 07:41:14;;;;;;;6.68;4.68;;;14.90;99.90;;;;;;5042923;28;20043;-70
2023/06/05 07:43:40;;;;;;;5.25;4.50;;;14.90;99.90;;;;;;5042499;28;20382;-71
2023/06/05 07:46:06;;;;;;;5.35;3.90;;;15.00;99.90;;;;;;5023953;28;20044;-71
2023/06/05 07:48:32;;;;;;;6.07;4.28;;;15.10;99.90;;;;;;5043930;28;20060;-71
2023/06/05 07:50:58;;;;;;;5.22;3.85;;;15.20;99.90;;;;;;5030002;28;20044;-71
2023/06/05 07:53:24;;;;;;;6.28;4.72;;;15.40;99.90;;;;;;5025560;28;20781;-71
2023/06/05 07:55:51;;;;;;;8.43;4.30;;;15.50;99.90;;;;;;5045236;28;20079;-71
2023/06/05 07:58:18;;;;;;;5.75;4.40;;;15.50;99.90;;;;;;5025321;28;20036;-71
2023/06/05 08:00:47;;;;;;;5.50;4.18;;;15.40;99.90;;;;;;5026210;28;20154;-71
2023/06/05 08:03:19;;;;;;;5.95;4.47;;;15.50;99.90;;;;;;5009134;28;20071;-71
2023/06/05 08:05:49;;;;;;;5.75;4.20;;;15.60;99.90;;;;;;5046786;28;20056;-71
2023/06/05 08:08:16;;;;;;;5.30;3.65;;;15.80;99.90;;;;;;5045775;28;20367;-71
2023/06/05 08:10:42;;;;;;;5.60;3.85;;;15.90;99.90;;;;;;5049649;28;20044;-70
2023/06/05 08:13:09;;;;;;;4.85;3.63;;;15.90;99.90;;;;;;5046982;28;20040;-71
2023/06/05 08:15:35;;;;;;;5.28;3.53;;;16.00;99.90;;;;;;5065367;28;20101;-71
2023/06/05 08:18:01;;;;;;;4.75;4.03;;;15.90;99.90;;;;;;5044503;28;20075;-71
2023/06/05 08:20:27;;;;;;;4.63;4.03;;;15.90;99.90;;;;;;5032164;28;20032;-71
2023/06/05 08:22:57;;;;;;;5.30;3.85;;;16.10;99.90;;;;;;5079293;28;20051;-73
2023/06/05 08:25:24;;;;;;;4.90;3.75;;;16.10;99.90;;;;;;5043080;28;20036;-73
2023/06/05 08:27:49;;;;;;;4.90;3.45;;;16.20;99.90;;;;;;5061640;28;20074;-74
2023/06/05 08:30:16;;;;;;;4.93;3.72;;;16.20;99.90;;;;;;5046451;28;20044;-73
2023/06/05 08:32:43;;;;;;;4.65;3.72;;;16.30;99.90;;;;;;5059625;28;20041;-73
2023/06/05 08:35:10;;;;;;;6.38;3.67;;;16.50;99.90;;;;;;5060296;28;20036;-70
2023/06/05 08:37:37;;;;;;;5.20;3.88;;;16.60;99.90;;;;;;5061684;28;20044;-71
2023/06/05 08:40:06;;;;;;;5.07;3.60;;;16.70;99.90;;;;;;5030560;28;20079;-70
2023/06/05 08:42:32;;;;;;;4.80;3.63;;;16.80;99.90;;;;;;5029983;28;20044;-71
2023/06/05 08:44:58;;;;;;;4.18;3.38;;;16.80;99.90;;;;;;5029449;28;20044;-70
2023/06/05 08:47:28;;;;;;;5.70;3.85;;;16.90;99.90;;;;;;5043752;28;20063;-70
2023/06/05 08:49:54;;;;;;;4.40;3.47;;;17.00;99.90;;;;;;5063062;28;20052;-71
2023/06/05 08:52:23;;;;;;;4.72;3.03;;;17.10;99.90;;;;;;5065212;28;20047;-73
2023/06/05 08:54:49;;;;;;;4.20;3.17;;;17.10;99.90;;;;;;5047522;28;20104;-73
2023/06/05 08:57:16;;;;;;;5.10;3.20;;;17.10;99.90;;;;;;5061288;28;20040;-72
2023/06/05 08:59:45;;;;;;;4.05;3.13;;;17.20;99.90;;;;;;5059595;28;20511;-72
2023/06/05 09:02:11;;;;;;;5.63;3.22;;;17.30;99.90;;;;;;5058199;28;20565;-75
2023/06/05 09:04:39;;;;;;;4.57;3.00;;;17.40;99.90;;;;;;5034010;28;20040;-74
2023/06/05 09:07:06;;;;;;;4.75;3.08;;;17.40;99.90;;;;;;5031210;28;20185;-73
2023/06/05 09:09:33;;;;;;;4.25;3.03;;;17.50;99.90;;;;;;5061878;28;20048;-73
2023/06/05 09:12:07;;;;;;;4.13;2.67;;;17.50;99.90;;;;;;5058617;28;20032;-72
2023/06/05 09:14:33;;;;;;;4.93;2.40;;;17.60;99.90;;;;;;5063017;28;20058;-73
2023/06/05 09:17:00;;;;;;;3.92;2.60;;;17.60;99.90;;;;;;5066855;28;20118;-74
2023/06/05 09:19:40;;;;;;;4.68;2.88;;;17.70;99.90;;;;;;5068861;28;20051;-73
2023/06/05 09:22:10;;;;;;;4.25;2.70;;;17.70;99.90;;;;;;5065090;28;20036;-74
2023/06/05 09:24:40;;;;;;;4.50;2.85;;;17.80;99.90;;;;;;5068476;28;20040;-72
2023/06/05 09:27:10;;;;;;;6.57;3.00;;;17.80;99.90;;;;;;5068577;28;20052;-73
2023/06/05 09:29:38;;;;;;;5.78;3.40;;;17.80;99.90;;;;;;5063343;28;20048;-73
2023/06/05 09:32:20;;;;;;;5.07;3.38;;;17.80;99.90;;;;;;5066907;28;20101;-74
2023/06/05 09:34:59;;;;;;;3.95;2.97;;;17.80;99.90;;;;;;5066789;28;20074;-73
2023/06/05 09:37:35;;;;;;;4.43;2.72;;;17.90;99.90;;;;;;5050417;28;20060;-72
2023/06/05 09:40:01;;;;;;;4.85;3.45;;;18.00;99.90;;;;;;5067555;28;20044;-73
2023/06/05 09:42:34;;;;;;;6.40;3.28;;;18.20;99.90;;;;;;5046692;28;20044;-72
2023/06/05 09:45:01;;;;;;;4.35;2.80;;;18.40;99.90;;;;;;5031421;28;20032;-73
2023/06/05 09:47:27;;;;;;;4.20;2.90;;;18.50;99.90;;;;;;5044529;28;20055;-73
2023/06/05 09:49:53;;;;;;;4.55;2.67;;;18.60;99.80;;;;;;5050308;28;20116;-73
2023/06/05 09:52:19;;;;;;;4.25;3.20;;;18.70;99.90;;;;;;5059804;28;20115;-74
2023/06/05 09:54:46;;;;;;;5.82;3.40;;;18.70;99.60;;;;;;5051234;28;20051;-72
2023/06/05 09:57:13;;;;;;;4.57;3.05;;;18.80;99.30;;;;;;5061020;28;20051;-73
2023/06/05 09:59:53;;;;;;;4.55;3.35;;;18.80;99.50;;;;;;5031314;28;20048;-70
2023/06/05 10:02:23;;;;;;;5.25;3.40;;;18.90;99.20;;;;;;5050798;28;20048;-71
2023/06/05 10:04:54;;;;;;;4.72;3.65;;;18.90;98.40;;;;;;5067846;28;20066;-71
2023/06/05 10:07:19;;;;;;;5.82;3.60;;;18.90;97.90;;;;;;5060511;28;20052;-70
2023/06/05 10:09:49;;;;;;;5.57;4.03;;;19.00;97.50;;;;;;5059684;28;20060;-71
2023/06/05 10:12:15;;;;;;;7.60;4.60;;;19.00;97.70;;;;;;5067130;28;20036;-71
2023/06/05 10:14:42;;;;;;;5.15;3.72;;;19.10;96.50;;;;;;5065930;28;20036;-71
2023/06/05 10:17:14;;;;;;;5.65;3.45;;;19.10;96.90;;;;;;5061076;28;20032;-70
2023/06/05 10:19:44;;;;;;;6.60;4.97;;;19.20;97.20;;;;;;5063258;28;20063;-70
2023/06/05 10:22:10;;;;;;;;;;;19.30;95.80;;;;;;5064148;28;20078;-70
2023/06/05 10:24:42;;;;;;;6.85;3.47;;;19.30;96.70;;;;;;5062921;28;19920;-71
2023/06/05 10:27:09;;;;;;;5.53;3.58;;;19.30;96.70;;;;;;5061909;28;20089;-71
2023/06/05 10:29:50;;;;;;;5.47;3.65;;;19.30;95.70;;;;;;5065779;28;20051;-71
2023/06/05 10:32:28;;;;;;;5.72;3.58;;;19.30;95.60;;;;;;5064525;28;20542;-71
2023/06/05 10:35:15;;;;;;;5.30;3.20;;;19.20;95.70;;;;;;5060085;28;20078;-71
2023/06/05 10:38:11;;;;;;;7.47;4.05;;;19.30;95.20;;;;;;5063902;28;20139;-71
2023/06/05 10:40:38;;;;;;;5.70;4.35;;;19.40;95.80;;;;;;5061252;28;20055;-70
2023/06/05 10:43:25;;;;;;;5.82;3.95;;;19.70;94.60;;;;;;5047141;28;20048;-71
2023/06/05 10:45:52;;;;;;;6.20;4.22;;;19.80;94.10;;;;;;5063984;28;20515;-70
2023/06/05 10:48:17;;;;;;;5.85;3.90;;;19.80;94.10;;;;;;5065442;28;20046;-70
2023/06/05 10:50:43;;;;;;;8.73;5.50;;;19.90;93.90;;;;;;5045209;28;20044;-71
2023/06/05 10:53:49;;;;;;;5.85;3.65;;;19.90;94.30;;;;;;5064874;28;20044;-71
2023/06/05 10:56:53;;;;;;;7.20;5.28;;;20.00;93.80;;;;;;5047215;28;20051;-71
2023/06/05 10:59:45;;;;;;;6.00;5.20;;;20.10;92.60;;;;;;5045244;28;20097;-71
2023/06/05 11:02:14;;;;;;;5.97;4.07;;;20.00;92.80;;;;;;5059821;28;20083;-71
2023/06/05 11:04:46;;;;;;;6.10;5.15;;;20.10;92.40;;;;;;5066099;28;20047;-71
2023/06/05 11:07:22;;;;;;;6.50;3.78;;;20.00;92.10;;;;;;5061528;28;20048;-71
2023/06/05 11:10:10;;;;;;;6.40;4.70;;;20.30;92.80;;;;;;5060306;28;20681;-72
2023/06/05 11:12:35;;;;;;;6.93;5.13;;;20.10;91.90;;;;;;5063384;28;20093;-71
2023/06/05 11:15:09;;;;;;;5.88;4.55;;;20.10;91.60;;;;;;5061645;28;20458;-70
2023/06/05 11:17:40;;;;;;;7.20;5.20;;;20.20;91.80;;;;;;5059777;28;20123;-71
2023/06/05 11:20:09;;;;;;;6.03;4.38;;;20.30;91.50;;;;;;5063589;28;20040;-71
2023/06/05 11:22:54;;;;;;;8.50;4.80;;;20.30;91.50;;;;;;5060759;28;20036;-71
2023/06/05 11:25:30;;;;;;;5.53;4.65;;;20.40;91.10;;;;;;5062764;28;20044;-70
2023/06/05 11:28:10;;;;;;;7.00;4.63;;;20.50;91.80;;;;;;5045857;28;20471;-70
2023/06/05 11:30:44;;;;;;;7.45;4.93;;;20.60;91.40;;;;;;5044556;28;20138;-71
2023/06/05 11:33:14;;;;;;;7.65;5.10;;;20.80;90.70;;;;;;5052206;28;20043;-71
2023/06/05 11:35:43;;;;;;;6.13;4.35;;;20.70;90.30;;;;;;5049005;28;20052;-71
2023/06/05 11:38:14;;;;;;;6.05;4.82;;;20.60;90.60;;;;;;5044690;28;20040;-71
2023/06/05 11:40:44;;;;;;;5.00;4.50;;;20.70;91.10;;;;;;5051180;28;20090;-71
2023/06/05 11:43:11;;;;;;;;;;;20.80;90.90;;;;;;5037988;28;20623;-71
2023/06/05 11:45:39;;;;;;;6.93;4.57;;;20.90;91.00;;;;;;5075919;28;20047;-72
2023/06/05 11:48:06;;;;;;;5.63;4.15;;;21.00;89.90;;;;;;5057175;28;20118;-71
2023/06/05 11:50:31;;;;;;;6.45;4.88;;;21.00;89.60;;;;;;5092680;28;20225;-71
2023/06/05 11:53:05;;;;;;;7.38;5.15;;;21.00;87.80;;;;;;5041501;28;20051;-71
2023/06/05 11:55:43;;;;;;;7.22;5.20;;;21.10;87.80;;;;;;5034793;28;20201;-71
2023/06/05 11:58:11;;;;;;;6.53;5.13;;;21.10;87.10;;;;;;5062149;28;20048;-71
2023/06/05 12:00:39;;;;;;;6.45;4.32;;;21.20;85.30;;;;;;5040944;28;20048;-71
2023/06/05 12:03:16;;;;;;;7.40;4.47;;;21.10;86.50;;;;;;5045970;28;20048;-70
2023/06/05 12:05:42;;;;;;;6.40;4.70;;;21.30;86.70;;;;;;5048441;28;20136;-70
2023/06/05 12:08:30;;;;;;;7.65;4.63;;;21.30;87.40;;;;;;5054357;28;20094;-71
2023/06/05 12:10:56;;;;;;;5.68;4.95;;;21.40;87.70;;;;;;5062247;28;20123;-70
2023/06/05 12:13:22;;;;;;;7.13;4.88;;;21.50;85.00;;;;;;5057095;28;20496;-70
2023/06/05 12:16:01;;;;;;;6.45;4.13;;;21.40;84.20;;;;;;5041185;28;20048;-71
2023/06/05 12:18:36;;;;;;;5.35;4.50;;;21.40;85.10;;;;;;5067203;28;20054;-71
2023/06/05 12:21:02;;;;;;;7.13;4.72;;;21.40;85.00;;;;;;5048024;28;20253;-70
2023/06/05 12:23:32;;;;;;;6.72;4.68;;;21.50;83.60;;;;;;5052448;28;20504;-71
2023/06/05 12:25:59;;;;;;;6.53;4.55;;;21.40;83.20;;;;;;5070013;28;20051;-70
2023/06/05 12:28:27;;;;;;;5.78;4.20;;;21.40;83.50;;;;;;5049533;28;20553;-71
2023/06/05 12:30:53;;;;;;;5.32;4.10;;;21.30;85.40;;;;;;5059449;28;20040;-70
2023/06/05 12:33:19;;;;;;;6.72;4.28;;;21.40;86.40;;;;;;5062288;28;20659;-71
2023/06/05 12:35:46;;;;;;;6.47;4.68;;;21.50;87.90;;;;;;5029203;28;20040;-71
2023/06/05 12:38:17;;;;;;;6.72;4.85;;;21.60;86.00;;;;;;5051736;28;20048;-70
2023/06/05 12:40:45;;;;;;;5.43;3.40;;;21.60;84.60;;;;;;5062148;28;20048;-70
2023/06/05 12:43:17;;;;;;;6.72;4.32;;;21.60;84.00;;;;;;5037337;28;20454;-70
2023/06/05 12:45:44;;;;;;;5.65;3.75;;;21.60;83.70;;;;;;5044720;28;20102;-71
2023/06/05 12:48:12;;;;;;;5.78;4.90;;;21.60;84.30;;;;;;5050347;28;20569;-71
2023/06/05 12:50:41;;;;;;;6.38;3.92;;;21.60;83.60;;;;;;5053956;28;20056;-70